Latest Weather Observations for White Cliffs AWS

IDN60801

Issued at 6:42 am EDT Thursday 8 December 2022 (issued every 10 minutes, with the page automatically refreshed every 10 minutes)

About weather observations | Map of weather stations | Latest weather observations for NSW | Other Formats
Station Details ID: 046129 Name: WHITE CLIFFS AWS Lat: -30.85 Lon: 143.07 Height: 158.0 m
Data from the previous 72 hours. | See also: Recent months at White Cliffs AWS
Date/Time
EDT
Temp
°C
App
Temp
°C
Dew
Point
°C
Rel
Hum
%
Delta-T
°C
Wind Press
QNH
hPa
Press
MSL
hPa
Rain since
9am
mm
Dir  Spd
km/h
Gust
km/h
Spd
kts
Gust
kts
08/06:30am 13.9 9.2 6.0 59 3.8 S 20 30 11 16 1013.6 1012.6 0.2
08/06:00am 14.2 9.1 5.8 57 4.0 S 22 32 12 17 1013.3 1012.3 0.2
08/05:30am 14.6 9.0 5.4 54 4.4 S 24 32 13 17 1012.7 1011.7 0.2
08/05:00am 15.1 8.3 5.0 51 4.8 S 30 39 16 21 1012.2 1011.2 0.2
08/04:30am 15.6 9.0 4.3 47 5.3 S 28 39 15 21 1012.1 1011.1 0.2
08/04:00am 16.2 10.3 3.9 44 5.8 S 24 32 13 17 1011.9 1010.9 0.2
08/03:30am 16.5 10.9 3.6 42 6.0 S 22 30 12 16 1011.7 1010.7 0.2
08/03:00am 17.2 10.5 3.5 40 6.4 S 28 35 15 19 1011.4 1010.4 0.2
08/02:30am 17.8 10.7 3.3 38 6.8 S 30 39 16 21 1011.4 1010.4 0.2
08/02:00am 18.3 11.5 3.0 36 7.1 S 28 35 15 19 1011.3 1010.3 0.2
08/01:30am 19.1 11.9 2.9 34 7.6 S 30 37 16 20 1011.3 1010.3 0.2
08/01:00am 19.7 12.2 3.4 34 7.8 S 32 44 17 24 1011.3 1010.3 0.2
08/12:30am 20.2 13.2 4.3 35 7.7 S 30 37 16 20 1011.2 1010.2 0.2
08/12:00am 21.0 13.7 4.6 34 8.1 S 32 41 17 22 1010.9 1009.9 0.2
 
Date/Time
EDT
Temp
°C
App
Temp
°C
Dew
Point
°C
Rel
Hum
%
Delta-T
°C
Wind Press
QNH
hPa
Press
MSL
hPa
Rain since
9am
mm
Dir  Spd
km/h
Gust
km/h
Spd
kts
Gust
kts
07/11:30pm 21.8 14.3 6.1 36 8.0 S 35 46 19 25 1010.5 1009.5 0.2
07/11:25pm 21.9 14.4 6.2 36 8.0 S 35 46 19 25 1010.4 1009.4 0.2
07/11:00pm 22.0 18.2 9.9 46 6.6 S 20 26 11 14 1009.9 1008.9 0.2
07/10:30pm 22.7 17.8 9.8 44 7.1 S 26 32 14 17 1009.3 1008.4 0.2
07/10:00pm 23.0 18.4 9.8 43 7.2 S 24 32 13 17 1008.8 1007.9 0.2
07/09:30pm 23.5 18.5 9.5 41 7.6 S 26 35 14 19 1008.4 1007.5 0.2
07/09:00pm 24.2 18.5 9.8 40 8.0 S 30 43 16 23 1007.9 1006.9 0.2
07/08:30pm 25.1 19.1 10.2 39 8.3 S 32 41 17 22 1007.4 1006.4 0.2
07/08:00pm 26.5 21.1 12.9 43 8.0 S 33 44 18 24 1006.5 1005.5 0.2
07/07:30pm 27.9 23.5 14.2 43 8.3 S 30 41 16 22 1005.6 1004.6 0.2
07/07:00pm 28.8 24.6 13.5 39 9.2 S 28 35 15 19 1005.2 1004.2 0.2
07/06:30pm 28.1 24.7 12.5 38 9.2 S 22 28 12 15 1004.9 1003.9 0.2
07/06:00pm 27.8 25.0 14.4 43 8.1 S 22 32 12 17 1004.7 1003.7 0.2
07/05:30pm 27.9 25.7 14.5 44 8.1 SSE 19 26 10 14 1004.3 1003.3 0.2
07/05:16pm 28.5 26.3 12.0 36 9.6 SSE 15 19 8 10 1004.1 1003.1 0.2
07/05:00pm 28.2 25.5 12.9 38 9.1 S 19 22 10 12 1004.6 1003.6 0.2
07/04:57pm 28.0 25.3 12.8 39 9.0 SSE 19 24 10 13 1004.5 1003.5 0.2
07/04:37pm 26.8 25.3 16.7 54 6.3 SSE 20 26 11 14 1004.6 1003.6 0.2
07/04:30pm 26.9 24.7 15.0 48 7.2 SSE 20 26 11 14 1004.6 1003.6 0.2
07/04:18pm 29.1 26.0 10.3 31 10.7 SSE 17 24 9 13 1004.7 1003.7 0.0
07/04:00pm 29.7 26.8 12.2 34 10.3 SE 19 26 10 14 1004.1 1003.1 0.0
07/03:32pm 26.5 22.9 15.2 49 6.9 SSW 28 43 15 23 1006.0 1005.0 0.0
07/03:30pm 26.4 22.7 15.1 49 6.9 SSW 28 43 15 23 1006.2 1005.2 0.0
07/03:13pm 29.6 25.6 9.2 28 11.4 SSE 20 28 11 15 1005.5 1004.5 0.0
07/03:00pm 29.7 26.0 9.3 28 11.5 SE 19 26 10 14 1004.8 1003.8 0.0
07/02:30pm 29.8 25.6 9.9 29 11.3 ESE 22 28 12 15 1004.6 1003.6 0.0
07/02:00pm 29.8 26.2 8.2 26 12.0 SE 17 24 9 13 1005.5 1004.5 0.0
07/01:30pm 30.0 25.8 8.4 26 12.0 SE 20 28 11 15 1005.1 1004.1 0.0
07/01:00pm 31.4 27.1 7.1 22 13.3 ESE 19 24 10 13 1005.6 1004.6 0.0
07/12:30pm 30.4 26.3 6.3 22 12.9 E 17 26 9 14 1006.0 1005.0 0.0
07/12:00pm 30.0 26.4 6.6 23 12.6 E 15 20 8 11 1006.3 1005.3 0.0
07/11:30am 29.4 26.2 6.7 24 12.2 E 13 19 7 10 1006.5 1005.5 0.0
07/11:00am 29.0 26.2 7.0 25 11.9 E 11 15 6 8 1006.8 1005.8 0.0
07/10:30am 27.9 25.2 7.2 27 11.1 E 11 15 6 8 1006.6 1005.6 0.0
07/10:00am 26.5 23.7 7.0 29 10.4 E 11 17 6 9 1006.3 1005.3 0.0
07/09:30am 26.0 23.7 7.6 31 9.9 E 9 11 5 6 1006.5 1005.5 0.0
07/09:00am 25.2 22.1 7.3 32 9.5 E 13 17 7 9 1006.1 1005.1 0.0
07/08:30am 24.3 21.0 6.6 32 9.2 SW 13 24 7 13 1007.5 1006.5 0.0
07/08:00am 23.5 19.1 6.7 34 8.8 NE 19 20 10 11 1005.6 1004.6 0.0
07/07:30am 22.8 20.4 7.0 36 8.2 NNE 9 11 5 6 1006.9 1005.9 0.0
07/07:00am 22.3 20.2 5.7 34 8.4 ENE 6 11 3 6 1006.6 1005.6 0.0
07/06:30am 22.7 20.3 5.2 32 8.8 SE 7 9 4 5 1006.2 1005.2 0.0
07/06:00am 22.8 21.4 5.3 32 8.8 WSW 2 7 1 4 1006.7 1005.7 0.0
07/05:30am 22.5 20.0 5.0 32 8.7 SW 7 15 4 8 1006.5 1005.5 0.0
07/05:00am 22.2 19.2 4.3 31 8.8 ENE 9 11 5 6 1005.2 1004.2 0.0
07/04:30am 22.1 18.7 4.2 31 8.8 E 11 13 6 7 1004.5 1003.5 0.0
07/04:00am 22.6 19.6 4.2 30 9.1 SSE 9 11 5 6 1005.2 1004.2 0.0
07/03:30am 22.0 18.2 4.1 31 8.8 E 13 17 7 9 1004.9 1003.9 0.0
07/03:00am 22.0 18.2 4.1 31 8.8 E 13 15 7 8 1005.8 1004.8 0.0
07/02:30am 22.6 18.8 3.7 29 9.2 ESE 13 15 7 8 1006.2 1005.2 0.0
07/02:00am 21.9 19.0 4.9 33 8.5 ENE 9 13 5 7 1006.6 1005.6 0.0
07/01:30am 22.0 18.4 5.0 33 8.5 ENE 13 17 7 9 1006.6 1005.6 0.0
07/01:00am 22.2 19.0 5.2 33 8.5 ESE 11 13 6 7 1007.5 1006.5 0.0
07/12:30am 22.0 18.4 5.0 33 8.5 ESE 13 15 7 8 1007.5 1006.5 0.0
07/12:00am 22.0 18.0 5.0 33 8.5 E 15 17 8 9 1007.6 1006.6 0.0
 
Date/Time
EDT
Temp
°C
App
Temp
°C
Dew
Point
°C
Rel
Hum
%
Delta-T
°C
Wind Press
QNH
hPa
Press
MSL
hPa
Rain since
9am
mm
Dir  Spd
km/h
Gust
km/h
Spd
kts
Gust
kts
06/11:30pm 22.5 18.9 5.0 32 8.7 E 13 15 7 8 1008.0 1007.0 0.0
06/11:00pm 23.4 19.8 4.9 30 9.3 E 13 15 7 8 1008.5 1007.6 0.0
06/10:30pm 24.4 21.1 4.7 28 9.9 ESE 11 13 6 7 1008.6 1007.7 0.0
06/10:00pm 25.0 21.6 4.2 26 10.4 ESE 11 15 6 8 1008.9 1008.0 0.0
06/09:30pm 25.8 21.7 4.3 25 10.8 SE 15 20 8 11 1008.6 1007.7 0.0
06/09:00pm 26.5 22.8 4.3 24 11.3 SE 13 15 7 8 1008.4 1007.5 0.0
06/08:30pm 27.3 23.6 4.4 23 11.7 SE 13 20 7 11 1008.1 1007.1 0.0
06/08:00pm 28.6 24.9 4.2 21 12.5 SE 13 20 7 11 1007.7 1006.7 0.0
06/07:30pm 29.2 25.8 4.0 20 12.9 E 11 17 6 9 1007.2 1006.2 0.0
06/07:00pm 29.8 27.1 3.7 19 13.4 ENE 7 13 4 7 1006.9 1005.9 0.0
06/06:30pm 30.1 27.5 4.0 19 13.5 E 7 13 4 7 1006.9 1005.9 0.0
06/06:00pm 30.5 26.4 4.3 19 13.6 SE 15 20 8 11 1006.9 1005.9 0.0
06/05:30pm 30.2 26.7 3.3 18 13.7 S 11 17 6 9 1007.2 1006.2 0.0
06/05:00pm 29.4 26.6 3.4 19 13.2 SE 7 15 4 8 1007.3 1006.3 0.0
06/04:30pm 29.8 26.2 2.9 18 13.6 ESE 11 24 6 13 1007.5 1006.5 0.0
06/04:00pm 30.2 25.5 3.3 18 13.7 SE 17 26 9 14 1008.2 1007.2 0.0
06/03:30pm 29.5 26.0 3.5 19 13.2 SW 11 20 6 11 1008.8 1007.9 0.0
06/03:00pm 29.2 25.0 1.7 17 13.6 SW 13 28 7 15 1009.6 1008.7 0.0
06/02:30pm 28.5 24.2 1.1 17 13.3 SSW 13 26 7 14 1009.6 1008.7 0.0
06/02:00pm 27.1 22.6 2.2 20 12.2 SSW 15 24 8 13 1010.1 1009.1 0.0
06/01:30pm 27.9 23.9 2.9 20 12.5 SW 13 22 7 12 1010.1 1009.1 0.0
06/01:00pm 27.2 24.8 4.3 23 11.7 E 6 9 3 5 1010.0 1009.0 0.0
06/12:30pm 27.0 25.1 4.7 24 11.4 SE 4 11 2 6 1009.9 1008.9 0.0
06/12:00pm 26.0 23.2 5.0 26 10.8 ESE 9 17 5 9 1010.6 1009.6 0.0
06/11:30am 25.5 22.5 6.2 29 10.1 SE 11 20 6 11 1010.5 1009.5 0.0
06/11:00am 24.4 21.4 6.2 31 9.4 SE 11 17 6 9 1010.9 1009.9 0.0
06/10:30am 24.1 21.2 6.4 32 9.2 SE 11 20 6 11 1011.4 1010.4 0.0
06/10:00am 23.2 19.5 6.5 34 8.6 ESE 15 22 8 12 1011.3 1010.3 0.0
06/09:30am 22.6 18.9 8.0 39 7.7 ESE 17 24 9 13 1011.4 1010.4 0.0
06/09:00am 21.8 17.7 8.0 41 7.3 ESE 19 26 10 14 1011.0 1010.0 0.0
06/08:30am 20.6 16.5 7.9 44 6.6 SE 19 26 10 14 1011.0 1010.0 0.0
06/08:00am 19.8 15.4 7.5 45 6.3 SE 20 26 11 14 1010.6 1009.6 0.0
06/07:30am 19.3 15.8 7.4 46 6.1 SE 15 20 8 11 1010.5 1009.5 0.0
06/07:00am 18.4 14.5 6.9 47 5.8 SE 17 22 9 12 1010.1 1009.1 0.0
06/06:30am 17.8 13.8 6.7 48 5.6 SSE 17 20 9 11 1010.1 1009.1 0.0
06/06:00am 18.2 14.2 6.7 47 5.8 SE 17 20 9 11 1009.7 1008.8 0.0
06/05:30am 18.3 14.3 6.8 47 5.8 SSE 17 20 9 11 1009.7 1008.8 0.0
06/05:00am 18.8 14.9 6.9 46 6.0 S 17 20 9 11 1010.2 1009.2 0.0
06/04:30am 19.3 15.3 6.8 44 6.3 SSE 17 19 9 10 1009.9 1008.9 0.0
06/04:00am 19.6 15.2 6.7 43 6.5 SSE 19 24 10 13 1009.6 1008.7 0.0
06/03:30am 20.0 16.5 7.1 43 6.6 SSE 15 19 8 10 1010.0 1009.0 0.0
06/03:00am 20.6 16.2 6.5 40 7.2 SSE 19 22 10 12 1009.9 1008.9 0.0
06/02:30am 20.9 16.5 6.4 39 7.4 S 19 24 10 13 1010.0 1009.0 0.0
06/02:00am 21.5 17.8 6.2 37 7.8 S 15 20 8 11 1010.0 1009.0 0.0
06/01:30am 21.9 17.8 6.2 36 8.0 SSW 17 20 9 11 1010.3 1009.3 0.0
06/01:00am 22.3 18.3 6.5 36 8.1 SSW 17 22 9 12 1010.6 1009.6 0.0
06/12:30am 22.4 18.0 6.6 36 8.1 SSW 19 24 10 13 1010.7 1009.7 0.0
06/12:00am 22.8 18.2 6.6 35 8.4 SSW 20 26 11 14 1010.7 1009.7 0.0
 
Date/Time
EDT
Temp
°C
App
Temp
°C
Dew
Point
°C
Rel
Hum
%
Delta-T
°C
Wind Press
QNH
hPa
Press
MSL
hPa
Rain since
9am
mm
Dir  Spd
km/h
Gust
km/h
Spd
kts
Gust
kts
05/11:30pm 23.1 17.7 6.4 34 8.6 SSW 24 32 13 17 1011.0 1010.0 0.0
05/11:00pm 23.5 17.8 6.7 34 8.7 SSW 26 32 14 17 1010.9 1009.9 0.0
05/10:30pm 24.0 17.9 6.7 33 9.0 S 28 37 15 20 1010.8 1009.8 0.0
05/10:00pm 24.6 18.7 7.3 33 9.2 S 28 39 15 21 1010.3 1009.3 0.0
05/09:30pm 24.9 18.1 7.1 32 9.4 S 32 44 17 24 1010.0 1009.0 0.0
05/09:00pm 25.8 19.6 7.9 32 9.6 S 30 39 16 21 1009.7 1008.8 0.0
05/08:30pm 26.8 20.4 8.7 32 9.9 S 32 41 17 22 1009.5 1008.6 0.0
05/08:00pm 27.8 22.3 9.1 31 10.4 S 28 35 15 19 1008.9 1008.0 0.0
05/07:30pm 28.5 22.1 9.2 30 10.8 S 33 43 18 23 1008.8 1007.9 0.0
05/07:00pm 29.4 22.4 8.5 27 11.6 SSW 35 46 19 25 1008.4 1007.5 0.0
05/06:30pm 31.4 23.9 7.8 23 13.0 SSW 37 46 20 25 1008.0 1007.0 0.0
05/06:00pm 32.2 24.0 8.4 23 13.4 SSW 41 56 22 30 1007.7 1006.7 0.0
05/05:33pm 32.7 25.3 6.8 20 14.2 SSW 35 54 19 29 1007.2 1006.2 0.0
05/05:30pm 33.3 26.2 6.6 19 14.6 SSW 33 46 18 25 1007.2 1006.2 0.0
05/05:14pm 34.5 27.7 6.7 18 15.3 SSW 32 50 17 27 1007.3 1006.3 0.0
05/05:00pm 35.2 30.2 8.1 19 15.4 SW 24 33 13 18 1007.2 1006.2 0.0
05/04:30pm 34.7 29.0 8.4 20 14.9 SSW 28 39 15 21 1007.0 1006.0 0.0
05/04:00pm 35.7 30.6 7.7 18 15.8 S 24 43 13 23 1006.9 1005.9 0.0
05/03:30pm 35.9 30.5 7.9 18 15.8 SSW 26 41 14 22 1007.0 1006.0 0.0
05/03:00pm 36.7 31.0 4.9 14 17.3 WSW 24 41 13 22 1007.3 1006.3 0.0
05/02:30pm 36.4 31.4 4.6 14 17.1 W 20 32 11 17 1007.7 1006.7 0.0
05/02:00pm 35.0 29.2 4.5 15 16.3 W 24 33 13 18 1008.2 1007.2 0.0
05/01:30pm 35.3 30.5 5.7 16 16.1 WNW 20 33 11 18 1008.6 1007.7 0.0
05/01:00pm 34.5 29.8 5.9 17 15.6 NW 20 30 11 16 1008.9 1008.0 0.0
05/12:30pm 32.5 28.2 5.1 18 14.6 W 17 32 9 17 1009.7 1008.8 0.0
05/12:00pm 31.7 27.0 6.0 20 13.8 WNW 20 28 11 15 1010.2 1009.2 0.0
05/11:30am 31.2 26.4 5.6 20 13.6 W 20 30 11 16 1010.4 1009.4 0.0
05/11:00am 30.3 25.8 6.2 22 12.9 W 19 28 10 15 1010.6 1009.6 0.0
05/10:30am 29.7 24.3 6.4 23 12.5 WSW 24 30 13 16 1010.9 1009.9 0.0
05/10:00am 29.5 24.4 6.2 23 12.4 W 22 28 12 15 1010.9 1009.9 0.0
05/09:30am 29.5 25.0 6.8 24 12.2 W 20 26 11 14 1010.9 1009.9 0.0
05/09:00am 28.5 24.5 6.6 25 11.7 W 17 26 9 14 1011.1 1010.1 0.0
05/08:30am 27.3 22.7 6.7 27 10.9 NNW 20 28 11 15 1010.6 1009.6 0.0
05/08:00am 25.9 21.3 6.5 29 10.2 NNW 20 24 11 13 1010.4 1009.4 0.0
05/07:30am 23.8 20.5 6.6 33 8.9 NNW 13 17 7 9 1010.2 1009.2 0.0
05/07:00am 21.6 18.5 7.1 39 7.5 NNW 13 17 7 9 1010.1 1009.1 0.0

Other formats

Comma delimited format used in spreadsheet applications
http://www.bom.gov.au/fwo/IDN60801/IDN60801.95699.axf

JavaScript Object Notation format (JSON) in row-major order
http://www.bom.gov.au/fwo/IDN60801/IDN60801.95699.json

Data quality

Most of these data are generated automatically and are frequently updated. Quality checks on data are not normally performed. It is possible for incorrect values to appear. Refer to information at About Latest Weather Observations and please check the disclaimer before using these data.